To NAV CANADA Home Page Login to a new session Search on AWWS site Disclaimer Vers la page française équivalente Tips FAQ What's new on the site To the Forecasts and Observations / NOTAM section To "File a Flight Plan" website Publications and other links Update of the User's profile FIC Telephone Numbers My Weather Data Folder Route Weather Data Regional Weather Data Local Weather Data To the Forecasts and Observations / NOTAM section
Request Generated 10/19/2018 at 15:28:16 UTC . Weather information available at that time is displayed.

METAR/TAF

LA RONGE (BARBER FIELD)/SK    

METAR CYVC 191500Z 32014G24KT 15SM FEW020 SCT110 01/M05 A3007 RMK SC1AC2 SLP201=
SPECI CYVC 191448Z 32016G21KT 15SM FEW020 BKN110 01/M04 A3007 RMK SC2AC3 SLP200=
METAR CYVC 191400Z 31008KT 15SM -RA BKN020 OVC040 02/01 A3005 RMK SC6SC2 SLP193=
SPECI CYVC 191309Z 29011G21KT 15SM -RA OVC020 04/02 A3002 RMK SC8 SLP183=
METAR CYVC 191300Z 28014G22KT 15SM OVC020 05/02 A3001 RMK SC8 SLP180=

TAF AMD CYVC 191433Z 1914/2001 32012G22KT P6SM BKN025 TEMPO 1914/1918
6SM -SHRA BR BKN020
FM191800 32015G25KT P6SM SCT025
RMK NXT FCST BY 191900Z=
Your time UTC time
Weather data provided by Environment Canada and NAV CANADA